sensor_id;sensor_type;location;lat;lon;timestamp;pressure;altitude;pressure_sealevel;temperature;humidity
62980;BME280;49075;53.988;27.678;2023-09-07T00:00:44;997.6;;;12;63.2
62980;BME280;49075;53.988;27.678;2023-09-07T00:05:58;997.7;;;12;63.3
62980;BME280;49075;53.988;27.678;2023-09-07T00:10:46;997.7;;;11.9;63.8
62980;BME280;49075;53.988;27.678;2023-09-07T00:15:46;997.7;;;11.9;63.7
62980;BME280;49075;53.988;27.678;2023-09-07T00:21:04;997.8;;;11.8;64.2
62980;BME280;49075;53.988;27.678;2023-09-07T00:25:54;997.9;;;11.7;64.3
62980;BME280;49075;53.988;27.678;2023-09-07T00:31:14;997.9;;;11.6;64.7
62980;BME280;49075;53.988;27.678;2023-09-07T00:36:00;997.9;;;11.5;65
62980;BME280;49075;53.988;27.678;2023-09-07T00:40:50;997.9;;;11.4;64.6
62980;BME280;49075;53.988;27.678;2023-09-07T00:45:48;997.9;;;11.2;65
62980;BME280;49075;53.988;27.678;2023-09-07T00:50:56;998;;;11;65.6
62980;BME280;49075;53.988;27.678;2023-09-07T00:55:58;998;;;10.9;65.9
62980;BME280;49075;53.988;27.678;2023-09-07T01:01:00;998.1;;;10.8;65.9
62980;BME280;49075;53.988;27.678;2023-09-07T01:05:39;998.1;;;10.7;66.5
62980;BME280;49075;53.988;27.678;2023-09-07T01:10:56;998.1;;;10.7;66.2
62980;BME280;49075;53.988;27.678;2023-09-07T01:15:54;998.2;;;10.6;66.6
62980;BME280;49075;53.988;27.678;2023-09-07T01:20:50;998.2;;;10.5;66.5
62980;BME280;49075;53.988;27.678;2023-09-07T01:25:50;998.2;;;10.4;66.9
62980;BME280;49075;53.988;27.678;2023-09-07T01:30:51;998.2;;;10.4;66.5
62980;BME280;49075;53.988;27.678;2023-09-07T01:35:48;998.2;;;10.4;66.7
62980;BME280;49075;53.988;27.678;2023-09-07T01:40:36;998.2;;;10.3;66.5
62980;BME280;49075;53.988;27.678;2023-09-07T01:46:02;998.2;;;10.2;66.8
62980;BME280;49075;53.988;27.678;2023-09-07T01:50:51;998.2;;;10.2;66.7
62980;BME280;49075;53.988;27.678;2023-09-07T01:55:36;998.2;;;10.2;66.8
62980;BME280;49075;53.988;27.678;2023-09-07T02:00:44;998.2;;;10.1;66.6
62980;BME280;49075;53.988;27.678;2023-09-07T02:05:45;998.2;;;10;67.2
62980;BME280;49075;53.988;27.678;2023-09-07T02:11:16;998.2;;;10.1;66.7
62980;BME280;49075;53.988;27.678;2023-09-07T02:15:56;998.3;;;10;66.8
62980;BME280;49075;53.988;27.678;2023-09-07T02:21:14;998.3;;;10;66.9
62980;BME280;49075;53.988;27.678;2023-09-07T02:26:02;998.3;;;10;66.8
62980;BME280;49075;53.988;27.678;2023-09-07T02:31:14;998.4;;;9.9;66.9
62980;BME280;49075;53.988;27.678;2023-09-07T02:35:48;998.5;;;9.9;66.8
62980;BME280;49075;53.988;27.678;2023-09-07T02:41:10;998.5;;;9.8;67.3
62980;BME280;49075;53.988;27.678;2023-09-07T02:45:58;998.6;;;9.7;67.1
62980;BME280;49075;53.988;27.678;2023-09-07T02:50:36;998.7;;;9.7;67.6
62980;BME280;49075;53.988;27.678;2023-09-07T02:55:44;998.7;;;9.7;67.2
62980;BME280;49075;53.988;27.678;2023-09-07T03:00:50;998.8;;;9.6;67.6
62980;BME280;49075;53.988;27.678;2023-09-07T03:05:37;998.9;;;9.7;67.1
62980;BME280;49075;53.988;27.678;2023-09-07T03:10:37;998.9;;;9.6;67.3
62980;BME280;49075;53.988;27.678;2023-09-07T03:16:03;998.9;;;9.6;67.2
62980;BME280;49075;53.988;27.678;2023-09-07T03:20:44;999;;;9.5;67.4
62980;BME280;49075;53.988;27.678;2023-09-07T03:25:36;999;;;9.5;67.1
62980;BME280;49075;53.988;27.678;2023-09-07T03:31:00;999;;;9.5;67.2
62980;BME280;49075;53.988;27.678;2023-09-07T03:35:58;999;;;9.5;67.2
62980;BME280;49075;53.988;27.678;2023-09-07T03:45:36;999.1;;;9.5;67.1
62980;BME280;49075;53.988;27.678;2023-09-07T03:50:37;999.1;;;9.5;67.1
62980;BME280;49075;53.988;27.678;2023-09-07T03:55:50;999.1;;;9.4;67.5
62980;BME280;49075;53.988;27.678;2023-09-07T04:00:37;999.2;;;9.4;67.2
62980;BME280;49075;53.988;27.678;2023-09-07T04:06:02;999.2;;;9.4;67.4
62980;BME280;49075;53.988;27.678;2023-09-07T04:10:56;999.2;;;9.5;67.2
62980;BME280;49075;53.988;27.678;2023-09-07T04:15:46;999.3;;;9.5;67.2
62980;BME280;49075;53.988;27.678;2023-09-07T04:21:05;999.3;;;9.6;67
62980;BME280;49075;53.988;27.678;2023-09-07T04:26:03;999.3;;;9.7;66.7
62980;BME280;49075;53.988;27.678;2023-09-07T04:30:42;999.3;;;10;66.5
62980;BME280;49075;53.988;27.678;2023-09-07T04:35:52;999.3;;;10.2;66
62980;BME280;49075;53.988;27.678;2023-09-07T04:41:14;999.3;;;10.6;65.5
62980;BME280;49075;53.988;27.678;2023-09-07T04:45:56;999.3;;;11;64.8
62980;BME280;49075;53.988;27.678;2023-09-07T04:50:36;999.3;;;11.3;64.2
62980;BME280;49075;53.988;27.678;2023-09-07T04:55:37;999.4;;;11.6;63.7
62980;BME280;49075;53.988;27.678;2023-09-07T05:00:48;999.4;;;11.9;62.9
62980;BME280;49075;53.988;27.678;2023-09-07T05:05:42;999.5;;;12.4;62.2
62980;BME280;49075;53.988;27.678;2023-09-07T05:10:54;999.4;;;12.8;61.1
62980;BME280;49075;53.988;27.678;2023-09-07T05:15:46;999.4;;;13.3;60
62980;BME280;49075;53.988;27.678;2023-09-07T05:20:36;999.4;;;13.7;59.1
62980;BME280;49075;53.988;27.678;2023-09-07T05:25:42;999.4;;;14.1;58.6
62980;BME280;49075;53.988;27.678;2023-09-07T05:30:37;999.4;;;14.7;57.7
62980;BME280;49075;53.988;27.678;2023-09-07T05:35:36;999.4;;;15.3;56.9
62980;BME280;49075;53.988;27.678;2023-09-07T05:40:43;999.5;;;16.4;55.1
62980;BME280;49075;53.988;27.678;2023-09-07T05:45:54;999.5;;;17;53.2
62980;BME280;49075;53.988;27.678;2023-09-07T05:50:48;999.5;;;18;51.7
62980;BME280;49075;53.988;27.678;2023-09-07T05:55:42;999.6;;;18.9;49.1
62980;BME280;49075;53.988;27.678;2023-09-07T06:00:59;999.6;;;19.7;47.6
62980;BME280;49075;53.988;27.678;2023-09-07T06:05:56;999.6;;;20.7;44.5
62980;BME280;49075;53.988;27.678;2023-09-07T06:10:48;999.6;;;21.8;42.1
62980;BME280;49075;53.988;27.678;2023-09-07T06:15:56;999.6;;;23;39.9
62980;BME280;49075;53.988;27.678;2023-09-07T06:20:50;999.6;;;24.1;37.4
62980;BME280;49075;53.988;27.678;2023-09-07T06:26:02;999.7;;;24.8;35.4
62980;BME280;49075;53.988;27.678;2023-09-07T06:30:36;999.6;;;25.4;34.4
62980;BME280;49075;53.988;27.678;2023-09-07T06:36:06;999.6;;;25.8;32.5
62980;BME280;49075;53.988;27.678;2023-09-07T06:40:54;999.7;;;26.5;32.1
62980;BME280;49075;53.988;27.678;2023-09-07T06:45:52;999.8;;;26.9;30.3
62980;BME280;49075;53.988;27.678;2023-09-07T06:51:01;999.8;;;27.4;30.4
62980;BME280;49075;53.988;27.678;2023-09-07T06:55:36;999.8;;;27.9;29
62980;BME280;49075;53.988;27.678;2023-09-07T07:01:06;999.8;;;28.2;27.1
62980;BME280;49075;53.988;27.678;2023-09-07T07:05:36;999.8;;;28.3;27.4
62980;BME280;49075;53.988;27.678;2023-09-07T07:10:49;999.9;;;28.1;27.1
62980;BME280;49075;53.988;27.678;2023-09-07T07:15:48;999.9;;;28.2;26.4
62980;BME280;49075;53.988;27.678;2023-09-07T07:21:10;999.9;;;28.5;26.6
62980;BME280;49075;53.988;27.678;2023-09-07T07:25:36;1000;;;29;25.6
62980;BME280;49075;53.988;27.678;2023-09-07T07:30:53;1000;;;29.2;24.9
62980;BME280;49075;53.988;27.678;2023-09-07T07:36:08;1000;;;29.3;23.9
62980;BME280;49075;53.988;27.678;2023-09-07T07:41:01;1000;;;29.2;24.6
62980;BME280;49075;53.988;27.678;2023-09-07T07:45:51;999.9;;;29.7;23.8
62980;BME280;49075;53.988;27.678;2023-09-07T07:50:55;1000;;;29.6;24
62980;BME280;49075;53.988;27.678;2023-09-07T07:55:51;1000;;;29.6;23.7
62980;BME280;49075;53.988;27.678;2023-09-07T08:00:37;1000;;;29.6;23.7
62980;BME280;49075;53.988;27.678;2023-09-07T08:05:50;1000;;;29.6;23.4
62980;BME280;49075;53.988;27.678;2023-09-07T08:10:54;1000;;;29.8;23.6
62980;BME280;49075;53.988;27.678;2023-09-07T08:20:37;1000;;;30.2;22.9
62980;BME280;49075;53.988;27.678;2023-09-07T08:25:36;1000;;;30.6;22.8
62980;BME280;49075;53.988;27.678;2023-09-07T08:30:37;1000;;;30.8;22.1
62980;BME280;49075;53.988;27.678;2023-09-07T08:36:10;1000.1;;;31.8;21.6
62980;BME280;49075;53.988;27.678;2023-09-07T08:40:42;1000.1;;;32.9;20.6
62980;BME280;49075;53.988;27.678;2023-09-07T08:45:45;1000.1;;;32.6;19.9
62980;BME280;49075;53.988;27.678;2023-09-07T08:50:36;1000.1;;;32.8;20.2
62980;BME280;49075;53.988;27.678;2023-09-07T08:55:36;1000.1;;;32.2;19.8
62980;BME280;49075;53.988;27.678;2023-09-07T09:00:43;1000.1;;;32.1;19.7
62980;BME280;49075;53.988;27.678;2023-09-07T09:10:45;1000;;;32.1;20.2
62980;BME280;49075;53.988;27.678;2023-09-07T09:15:37;1000;;;32.4;19.8
62980;BME280;49075;53.988;27.678;2023-09-07T10:10:59;999.7;;;35.4;16.4
62980;BME280;49075;53.988;27.678;2023-09-07T10:15:37;999.6;;;35;16.5
62980;BME280;49075;53.988;27.678;2023-09-07T10:21:05;999.6;;;35;16.4
62980;BME280;49075;53.988;27.678;2023-09-07T10:25:46;999.5;;;34.3;16.5
62980;BME280;49075;53.988;27.678;2023-09-07T10:55:37;999.5;;;33.9;15.8
62980;BME280;49075;53.988;27.678;2023-09-07T11:00:37;999.5;;;33.8;16
62980;BME280;49075;53.988;27.678;2023-09-07T11:05:59;999.5;;;33.6;16.1
62980;BME280;49075;53.988;27.678;2023-09-07T11:10:37;999.5;;;32.6;16.2
62980;BME280;49075;53.988;27.678;2023-09-07T11:15:43;999.5;;;31.8;16.8
62980;BME280;49075;53.988;27.678;2023-09-07T11:20:37;999.5;;;31.8;17
62980;BME280;49075;53.988;27.678;2023-09-07T11:25:37;999.5;;;31.6;17.1
62980;BME280;49075;53.988;27.678;2023-09-07T11:35:37;999.3;;;29.7;19
62980;BME280;49075;53.988;27.678;2023-09-07T11:40:37;999.4;;;28.5;19.5
62980;BME280;49075;53.988;27.678;2023-09-07T11:45:51;999.3;;;27.9;19.8
62980;BME280;49075;53.988;27.678;2023-09-07T11:50:59;999.3;;;27.4;20.2
62980;BME280;49075;53.988;27.678;2023-09-07T11:55:37;999.3;;;26.7;21
62980;BME280;49075;53.988;27.678;2023-09-07T12:00:43;999.4;;;25.5;22
62980;BME280;49075;53.988;27.678;2023-09-07T12:05:51;999.4;;;24.8;23.4
62980;BME280;49075;53.988;27.678;2023-09-07T12:10:37;999.4;;;23.9;24.5
62980;BME280;49075;53.988;27.678;2023-09-07T12:15:49;999.3;;;23.1;25.8
62980;BME280;49075;53.988;27.678;2023-09-07T12:21:11;999.3;;;22.8;26
62980;BME280;49075;53.988;27.678;2023-09-07T12:25:57;999.2;;;22.5;26.6
62980;BME280;49075;53.988;27.678;2023-09-07T12:30:37;999.1;;;22.2;27
62980;BME280;49075;53.988;27.678;2023-09-07T12:35:37;999.1;;;22.2;27.2
62980;BME280;49075;53.988;27.678;2023-09-07T12:40:45;999;;;21.9;27.9
62980;BME280;49075;53.988;27.678;2023-09-07T12:55:37;998.8;;;21.7;28.8
62980;BME280;49075;53.988;27.678;2023-09-07T13:00:37;998.8;;;21.5;29.4
62980;BME280;49075;53.988;27.678;2023-09-07T13:06:03;998.8;;;21.6;29.1
62980;BME280;49075;53.988;27.678;2023-09-07T13:10:43;998.8;;;21.5;29.6
62980;BME280;49075;53.988;27.678;2023-09-07T13:15:49;998.7;;;21.4;29.8
62980;BME280;49075;53.988;27.678;2023-09-07T13:20:51;998.7;;;21.4;30
62980;BME280;49075;53.988;27.678;2023-09-07T13:26:01;998.7;;;21.4;30
62980;BME280;49075;53.988;27.678;2023-09-07T13:31:21;998.7;;;21.3;30.5
62980;BME280;49075;53.988;27.678;2023-09-07T13:35:43;998.6;;;21.5;30.1
62980;BME280;49075;53.988;27.678;2023-09-07T13:40:50;998.5;;;21.4;30.6
62980;BME280;49075;53.988;27.678;2023-09-07T13:45:37;998.5;;;21.3;30.8
62980;BME280;49075;53.988;27.678;2023-09-07T13:50:59;998.5;;;21;31.4
62980;BME280;49075;53.988;27.678;2023-09-07T13:56:03;998.4;;;21;31.4
62980;BME280;49075;53.988;27.678;2023-09-07T14:00:43;998.4;;;20.9;31.8
62980;BME280;49075;53.988;27.678;2023-09-07T14:05:37;998.4;;;21;31.4
62980;BME280;49075;53.988;27.678;2023-09-07T14:10:37;998.4;;;20.9;31.7
62980;BME280;49075;53.988;27.678;2023-09-07T14:15:37;998.4;;;20.8;31.5
62980;BME280;49075;53.988;27.678;2023-09-07T14:20:45;998.4;;;20.8;31.7
62980;BME280;49075;53.988;27.678;2023-09-07T14:25:37;998.4;;;20.7;31.5
62980;BME280;49075;53.988;27.678;2023-09-07T14:30:55;998.3;;;20.6;31.7
62980;BME280;49075;53.988;27.678;2023-09-07T14:35:51;998.3;;;20.7;31.5
62980;BME280;49075;53.988;27.678;2023-09-07T14:40:37;998.2;;;20.7;31.6
62980;BME280;49075;53.988;27.678;2023-09-07T14:46:13;998.2;;;20.6;31.7
62980;BME280;49075;53.988;27.678;2023-09-07T14:50:49;998.2;;;20.5;32.1
62980;BME280;49075;53.988;27.678;2023-09-07T14:56:21;998.1;;;20.6;32
62980;BME280;49075;53.988;27.678;2023-09-07T15:00:37;998.1;;;20.6;32.3
62980;BME280;49075;53.988;27.678;2023-09-07T15:05:37;998;;;20.6;32.1
62980;BME280;49075;53.988;27.678;2023-09-07T15:10:45;998;;;20.6;32.3
62980;BME280;49075;53.988;27.678;2023-09-07T15:15:37;997.9;;;20.6;32.3
62980;BME280;49075;53.988;27.678;2023-09-07T15:21:05;998;;;20.5;32.5
62980;BME280;49075;53.988;27.678;2023-09-07T15:26:03;998.1;;;20.6;32.6
62980;BME280;49075;53.988;27.678;2023-09-07T15:30:51;998.1;;;20.3;33.1
62980;BME280;49075;53.988;27.678;2023-09-07T15:36:03;998.1;;;20.1;33.6
62980;BME280;49075;53.988;27.678;2023-09-07T15:40:49;998.1;;;19.9;33.8
62980;BME280;49075;53.988;27.678;2023-09-07T15:45:45;998.2;;;19.9;34.1
62980;BME280;49075;53.988;27.678;2023-09-07T15:50:51;998.2;;;19.7;34.2
62980;BME280;49075;53.988;27.678;2023-09-07T15:55:37;998.2;;;19.7;34.3
62980;BME280;49075;53.988;27.678;2023-09-07T16:00:47;998.3;;;19.6;34.8
62980;BME280;49075;53.988;27.678;2023-09-07T16:05:37;998.3;;;19.6;34.8
62980;BME280;49075;53.988;27.678;2023-09-07T16:10:43;998.2;;;19.5;35.2
62980;BME280;49075;53.988;27.678;2023-09-07T16:16:03;998.2;;;19.4;35.5
62980;BME280;49075;53.988;27.678;2023-09-07T16:20:59;998.2;;;19.3;35.8
62980;BME280;49075;53.988;27.678;2023-09-07T16:25:49;998.3;;;19.3;36.1
62980;BME280;49075;53.988;27.678;2023-09-07T16:30:50;998.3;;;19.1;36.4
62980;BME280;49075;53.988;27.678;2023-09-07T16:35:37;998.2;;;18.9;37
62980;BME280;49075;53.988;27.678;2023-09-07T16:40:37;998.2;;;18.6;37.8
62980;BME280;49075;53.988;27.678;2023-09-07T16:45:56;998.2;;;18.3;39.4
62980;BME280;49075;53.988;27.678;2023-09-07T16:50:37;998.2;;;18;40.1
62980;BME280;49075;53.988;27.678;2023-09-07T16:55:37;998.2;;;17.8;41.4
62980;BME280;49075;53.988;27.678;2023-09-07T17:01:04;998.3;;;17.5;41.6
62980;BME280;49075;53.988;27.678;2023-09-07T17:05:37;998.3;;;17.2;43
62980;BME280;49075;53.988;27.678;2023-09-07T17:11:01;998.3;;;17;43.3
62980;BME280;49075;53.988;27.678;2023-09-07T17:16:03;998.3;;;16.9;43.7
62980;BME280;49075;53.988;27.678;2023-09-07T17:20:55;998.3;;;16.7;43.9
62980;BME280;49075;53.988;27.678;2023-09-07T17:25:37;998.3;;;16.5;44.8
62980;BME280;49075;53.988;27.678;2023-09-07T17:30:37;998.3;;;16.3;44.7
62980;BME280;49075;53.988;27.678;2023-09-07T17:35:37;998.4;;;16.1;45.8
62980;BME280;49075;53.988;27.678;2023-09-07T17:41:01;998.4;;;16;45.6
62980;BME280;49075;53.988;27.678;2023-09-07T17:46:05;998.4;;;15.9;46.3
62980;BME280;49075;53.988;27.678;2023-09-07T17:50:49;998.3;;;15.7;46.6
62980;BME280;49075;53.988;27.678;2023-09-07T17:55:49;998.3;;;15.5;47.3
62980;BME280;49075;53.988;27.678;2023-09-07T18:00:37;998.2;;;15.3;47.8
62980;BME280;49075;53.988;27.678;2023-09-07T18:06:03;998.2;;;15.2;48.2
62980;BME280;49075;53.988;27.678;2023-09-07T18:10:49;998.2;;;15;48.7
62980;BME280;49075;53.988;27.678;2023-09-07T18:16:11;998.2;;;14.9;49.3
62980;BME280;49075;53.988;27.678;2023-09-07T18:20:37;998.2;;;14.8;49.1
62980;BME280;49075;53.988;27.678;2023-09-07T18:25:43;998.2;;;14.8;49.6
62980;BME280;49075;53.988;27.678;2023-09-07T18:30:39;998.1;;;14.7;49.4
62980;BME280;49075;53.988;27.678;2023-09-07T18:35:37;998.1;;;14.7;49.8
62980;BME280;49075;53.988;27.678;2023-09-07T18:40:43;998.2;;;14.6;49.8
62980;BME280;49075;53.988;27.678;2023-09-07T18:45:49;998.2;;;14.5;50.4
62980;BME280;49075;53.988;27.678;2023-09-07T18:51:03;998.3;;;14.5;50.3
62980;BME280;49075;53.988;27.678;2023-09-07T18:56:17;998.2;;;14.4;50.5
62980;BME280;49075;53.988;27.678;2023-09-07T19:00:49;998.1;;;14.2;50.9
62980;BME280;49075;53.988;27.678;2023-09-07T19:06:01;998.2;;;14;51.7
62980;BME280;49075;53.988;27.678;2023-09-07T19:10:37;998.2;;;13.9;51.8
62980;BME280;49075;53.988;27.678;2023-09-07T19:15:37;998.2;;;13.8;52.3
62980;BME280;49075;53.988;27.678;2023-09-07T19:20:50;998.2;;;13.7;52.4
62980;BME280;49075;53.988;27.678;2023-09-07T19:25:57;998.2;;;13.5;53.1
62980;BME280;49075;53.988;27.678;2023-09-07T19:30:43;998.2;;;13.4;52.9
62980;BME280;49075;53.988;27.678;2023-09-07T19:35:37;998.1;;;13.2;53.8
62980;BME280;49075;53.988;27.678;2023-09-07T19:40:51;998.1;;;13.1;54.1
62980;BME280;49075;53.988;27.678;2023-09-07T19:46:03;998.1;;;13;54.3
62980;BME280;49075;53.988;27.678;2023-09-07T19:50:49;998.1;;;13.1;54
62980;BME280;49075;53.988;27.678;2023-09-07T19:55:37;998.2;;;13;54.8
62980;BME280;49075;53.988;27.678;2023-09-07T20:00:37;998.2;;;13;54.6
62980;BME280;49075;53.988;27.678;2023-09-07T20:05:55;998.2;;;12.7;55.4
62980;BME280;49075;53.988;27.678;2023-09-07T20:11:03;998.2;;;12.7;55.3
62980;BME280;49075;53.988;27.678;2023-09-07T20:15:37;998.1;;;12.5;56.5
62980;BME280;49075;53.988;27.678;2023-09-07T20:20:37;998.1;;;12.5;55.8
62980;BME280;49075;53.988;27.678;2023-09-07T20:26:13;998.1;;;12.5;55.8
62980;BME280;49075;53.988;27.678;2023-09-07T20:31:03;998.2;;;12.5;55.9
62980;BME280;49075;53.988;27.678;2023-09-07T20:35:51;998.2;;;12.3;56.9
62980;BME280;49075;53.988;27.678;2023-09-07T20:40:37;998.1;;;12.1;57.1
62980;BME280;49075;53.988;27.678;2023-09-07T20:45:59;998.1;;;11.9;57.8
62980;BME280;49075;53.988;27.678;2023-09-07T20:50:37;998.1;;;11.9;57.9
62980;BME280;49075;53.988;27.678;2023-09-07T20:55:49;998;;;11.8;57.9
62980;BME280;49075;53.988;27.678;2023-09-07T21:00:52;998.1;;;11.7;58.4
62980;BME280;49075;53.988;27.678;2023-09-07T21:06:23;998.1;;;11.7;58
62980;BME280;49075;53.988;27.678;2023-09-07T21:10:55;998;;;11.7;58.5
62980;BME280;49075;53.988;27.678;2023-09-07T21:15:37;998.1;;;11.6;58.4
62980;BME280;49075;53.988;27.678;2023-09-07T21:20:51;998.1;;;11.5;59.3
62980;BME280;49075;53.988;27.678;2023-09-07T21:25:51;998.1;;;11.4;59.1
62980;BME280;49075;53.988;27.678;2023-09-07T21:30:49;998.1;;;11.4;59.7
62980;BME280;49075;53.988;27.678;2023-09-07T21:35:49;998.1;;;11.4;59.1
62980;BME280;49075;53.988;27.678;2023-09-07T21:41:03;998;;;11.4;59.5
62980;BME280;49075;53.988;27.678;2023-09-07T21:45:55;997.9;;;11.3;59.3
62980;BME280;49075;53.988;27.678;2023-09-07T21:51:25;997.9;;;11;60.6
62980;BME280;49075;53.988;27.678;2023-09-07T21:55:37;998;;;11;59.9
62980;BME280;49075;53.988;27.678;2023-09-07T22:00:43;997.9;;;11.1;60.3
62980;BME280;49075;53.988;27.678;2023-09-07T22:05:52;998;;;11.1;59.8
62980;BME280;49075;53.988;27.678;2023-09-07T22:11:11;998;;;11.1;60.5
62980;BME280;49075;53.988;27.678;2023-09-07T22:15:47;998;;;11.1;60
62980;BME280;49075;53.988;27.678;2023-09-07T22:20:37;998;;;11;60.5
62980;BME280;49075;53.988;27.678;2023-09-07T22:25:49;998;;;11;60.4
62980;BME280;49075;53.988;27.678;2023-09-07T22:30:47;997.9;;;10.8;61.1
62980;BME280;49075;53.988;27.678;2023-09-07T22:35:43;997.9;;;10.7;60.8
62980;BME280;49075;53.988;27.678;2023-09-07T22:40:43;998;;;10.7;61.2
62980;BME280;49075;53.988;27.678;2023-09-07T22:45:57;998;;;10.8;61.1
62980;BME280;49075;53.988;27.678;2023-09-07T22:50:55;998;;;10.7;61
62980;BME280;49075;53.988;27.678;2023-09-07T22:56:01;998;;;10.6;61.1
62980;BME280;49075;53.988;27.678;2023-09-07T23:00:37;998;;;10.4;61.9
62980;BME280;49075;53.988;27.678;2023-09-07T23:06:01;997.9;;;10.4;61.5
62980;BME280;49075;53.988;27.678;2023-09-07T23:11:05;997.9;;;10.2;62.4
62980;BME280;49075;53.988;27.678;2023-09-07T23:15:47;997.9;;;10;62.1
62980;BME280;49075;53.988;27.678;2023-09-07T23:20:59;997.9;;;9.9;62.8
62980;BME280;49075;53.988;27.678;2023-09-07T23:25:37;997.9;;;9.9;62.2
62980;BME280;49075;53.988;27.678;2023-09-07T23:30:55;997.9;;;9.8;62.7
62980;BME280;49075;53.988;27.678;2023-09-07T23:35:43;997.8;;;9.8;62.4
62980;BME280;49075;53.988;27.678;2023-09-07T23:40:37;997.8;;;9.7;63.3
62980;BME280;49075;53.988;27.678;2023-09-07T23:45:37;997.8;;;9.7;62.6
62980;BME280;49075;53.988;27.678;2023-09-07T23:50:51;997.7;;;9.7;63.1
62980;BME280;49075;53.988;27.678;2023-09-07T23:55:49;997.7;;;9.7;62.6
